createdAt,value
2023-01-29T00:00:10.157Z,7.40
2023-01-29T00:02:38.274Z,4.70
2023-01-29T00:05:25.448Z,6.35
2023-01-29T00:07:54.335Z,2.50
2023-01-29T00:10:21.964Z,3.90
2023-01-29T00:12:53.120Z,3.92
2023-01-29T00:15:20.949Z,2.20
2023-01-29T00:17:48.380Z,3.63
2023-01-29T00:20:16.612Z,3.83
2023-01-29T00:22:44.289Z,6.57
2023-01-29T00:25:12.142Z,6.47
2023-01-29T00:27:39.662Z,6.72
2023-01-29T00:30:13.225Z,5.35
2023-01-29T00:32:44.053Z,4.90
2023-01-29T00:35:11.872Z,5.28
2023-01-29T00:37:39.680Z,3.58
2023-01-29T00:40:07.739Z,8.18
2023-01-29T00:42:54.031Z,5.75
2023-01-29T00:45:24.160Z,3.38
2023-01-29T00:47:51.714Z,4.85
2023-01-29T00:50:19.411Z,4.18
2023-01-29T00:52:50.367Z,3.65
2023-01-29T00:55:17.832Z,6.43
2023-01-29T00:57:45.297Z,5.05
2023-01-29T01:00:17.522Z,2.28
2023-01-29T01:03:05.818Z,3.55
2023-01-29T01:05:33.360Z,3.85
2023-01-29T01:08:00.789Z,4.13
2023-01-29T01:10:32.023Z,3.47
2023-01-29T01:13:04.256Z,1.73
2023-01-29T01:15:36.987Z,3.20
2023-01-29T01:18:04.835Z,2.25
2023-01-29T01:20:35.465Z,1.65
2023-01-29T01:23:03.150Z,2.80
2023-01-29T01:25:33.112Z,3.25
2023-01-29T01:30:27.884Z,6.15
2023-01-29T01:32:55.695Z,3.72
2023-01-29T01:35:23.331Z,4.47
2023-01-29T01:37:50.909Z,2.72
2023-01-29T01:40:20.737Z,6.68
2023-01-29T01:42:52.725Z,4.78
2023-01-29T01:45:26.354Z,4.57
2023-01-29T01:47:57.242Z,7.78
2023-01-29T01:51:03.473Z,4.57
2023-01-29T01:53:38.620Z,3.60
2023-01-29T01:56:08.082Z,4.60
2023-01-29T01:58:43.932Z,3.47
2023-01-29T02:01:12.635Z,2.25
2023-01-29T02:04:14.147Z,4.65
2023-01-29T02:07:00.338Z,6.13
2023-01-29T02:09:37.951Z,3.88
2023-01-29T02:12:08.290Z,5.15
2023-01-29T02:14:40.389Z,2.08
2023-01-29T02:17:17.069Z,3.95
2023-01-29T02:20:06.398Z,5.03
2023-01-29T02:22:55.316Z,3.20
2023-01-29T02:25:25.259Z,3.30
2023-01-29T02:28:05.101Z,3.58
2023-01-29T02:30:40.719Z,3.35
2023-01-29T02:33:36.931Z,5.82
2023-01-29T02:36:28.857Z,4.07
2023-01-29T02:38:58.921Z,3.05
2023-01-29T02:41:35.864Z,17.70
2023-01-29T02:44:07.926Z,3.80
2023-01-29T02:46:41.199Z,9.50
2023-01-29T02:49:23.311Z,4.63
2023-01-29T02:52:02.342Z,4.15
2023-01-29T02:54:47.434Z,4.00
2023-01-29T02:57:24.717Z,5.10
2023-01-29T03:00:03.311Z,5.90
2023-01-29T03:02:40.552Z,3.55
2023-01-29T03:05:13.422Z,9.25
2023-01-29T03:07:46.612Z,3.33
2023-01-29T03:10:34.555Z,1.08
2023-01-29T03:13:08.954Z,4.13
2023-01-29T03:15:51.307Z,5.53
2023-01-29T03:18:22.724Z,7.85
2023-01-29T03:20:58.958Z,2.15
2023-01-29T03:23:51.913Z,2.53
2023-01-29T03:26:39.900Z,3.25
2023-01-29T03:29:27.625Z,3.35
2023-01-29T03:32:08.474Z,2.53
2023-01-29T03:34:58.365Z,5.88
2023-01-29T03:37:49.211Z,5.70
2023-01-29T03:40:17.456Z,2.30
2023-01-29T03:43:02.876Z,3.40
2023-01-29T03:45:58.600Z,7.00
2023-01-29T03:48:50.737Z,3.85
2023-01-29T03:51:34.510Z,6.20
2023-01-29T03:54:09.066Z,3.80
2023-01-29T03:56:55.037Z,8.63
2023-01-29T03:59:25.819Z,5.40
2023-01-29T04:02:00.883Z,4.07
2023-01-29T04:04:33.132Z,2.90
2023-01-29T04:07:09.807Z,1.83
2023-01-29T04:09:49.979Z,5.70
2023-01-29T04:12:23.798Z,8.40
2023-01-29T04:14:54.536Z,2.97
2023-01-29T04:17:33.118Z,10.05
2023-01-29T04:20:01.637Z,7.18
2023-01-29T04:22:33.377Z,8.02
2023-01-29T04:25:08.458Z,6.15
2023-01-29T04:28:13.305Z,4.63
2023-01-29T04:30:54.667Z,2.40
2023-01-29T04:33:59.272Z,4.50
2023-01-29T04:36:53.964Z,9.45
2023-01-29T04:39:55.723Z,5.28
2023-01-29T04:42:49.530Z,10.27
2023-01-29T04:45:20.131Z,4.47
2023-01-29T04:48:05.391Z,2.08
2023-01-29T04:50:40.739Z,3.85
2023-01-29T04:53:34.651Z,3.95
2023-01-29T04:56:13.119Z,5.82
2023-01-29T04:58:49.760Z,2.33
2023-01-29T05:01:19.485Z,4.80
2023-01-29T05:03:50.610Z,2.03
2023-01-29T05:06:20.834Z,4.28
2023-01-29T05:11:20.188Z,5.03
2023-01-29T05:13:49.345Z,3.65
2023-01-29T05:16:25.069Z,3.10
2023-01-29T05:18:52.887Z,3.65
2023-01-29T05:21:21.092Z,3.38
2023-01-29T05:24:06.264Z,5.20
2023-01-29T05:26:54.559Z,4.45
2023-01-29T05:29:22.311Z,1.70
2023-01-29T05:31:50.051Z,3.13
2023-01-29T05:34:19.931Z,4.22
2023-01-29T05:36:47.572Z,3.03
2023-01-29T05:39:15.793Z,4.25
2023-01-29T05:41:43.497Z,3.42
2023-01-29T05:44:11.667Z,3.50
2023-01-29T05:46:39.594Z,9.63
2023-01-29T05:49:07.248Z,1.25
2023-01-29T05:51:34.760Z,11.68
2023-01-29T05:54:02.778Z,3.83
2023-01-29T05:56:29.992Z,8.73
2023-01-29T05:58:57.591Z,3.63
2023-01-29T06:01:30.729Z,7.28
2023-01-29T06:03:58.422Z,3.63
2023-01-29T06:06:25.906Z,5.47
2023-01-29T06:08:53.467Z,6.55
2023-01-29T06:11:21.839Z,4.03
2023-01-29T06:13:51.990Z,3.05
2023-01-29T06:16:19.680Z,4.55
2023-01-29T06:18:47.337Z,3.90
2023-01-29T06:21:15.031Z,2.63
2023-01-29T06:23:44.787Z,4.40
2023-01-29T06:26:14.376Z,4.65
2023-01-29T06:28:42.216Z,2.58
2023-01-29T06:31:30.334Z,4.90
2023-01-29T06:33:58.086Z,1.65
2023-01-29T06:36:25.570Z,7.35
2023-01-29T06:38:52.963Z,2.83
2023-01-29T06:41:25.321Z,13.55
2023-01-29T06:43:52.753Z,2.88
2023-01-29T06:46:20.278Z,2.90
2023-01-29T06:48:50.076Z,4.20
2023-01-29T06:51:17.924Z,4.85
2023-01-29T06:53:48.176Z,3.28
2023-01-29T06:58:43.689Z,3.38
2023-01-29T07:01:22.161Z,3.58
2023-01-29T07:03:53.345Z,4.22
2023-01-29T07:06:20.852Z,4.05
2023-01-29T07:08:48.481Z,4.10
2023-01-29T07:11:19.111Z,2.85
2023-01-29T07:13:49.044Z,2.15
2023-01-29T07:16:16.321Z,3.22
2023-01-29T07:18:44.051Z,4.53
2023-01-29T07:21:11.371Z,2.78
2023-01-29T07:23:38.873Z,6.03
2023-01-29T07:26:06.894Z,3.40
2023-01-29T07:28:41.086Z,3.08
2023-01-29T07:31:11.890Z,2.20
2023-01-29T07:33:44.312Z,3.80
2023-01-29T07:36:13.074Z,4.40
2023-01-29T07:38:40.622Z,3.00
2023-01-29T07:41:08.185Z,3.05
2023-01-29T07:43:35.985Z,4.03
2023-01-29T07:46:04.679Z,2.70
2023-01-29T07:48:32.059Z,2.38
2023-01-29T07:50:59.910Z,3.05
2023-01-29T07:53:28.478Z,2.45
2023-01-29T07:55:58.416Z,3.47
2023-01-29T07:58:25.923Z,2.83
2023-01-29T08:00:53.478Z,2.70
2023-01-29T08:03:21.469Z,3.63
2023-01-29T08:05:49.187Z,3.03
2023-01-29T08:08:16.602Z,2.08
2023-01-29T08:10:44.194Z,2.35
2023-01-29T08:13:14.253Z,4.43
2023-01-29T08:15:45.469Z,4.03
2023-01-29T08:18:14.371Z,3.88
2023-01-29T08:20:41.670Z,4.60
2023-01-29T08:23:14.539Z,2.70
2023-01-29T08:25:42.618Z,3.60
2023-01-29T08:28:12.714Z,3.67
2023-01-29T08:30:40.191Z,6.25
2023-01-29T08:33:07.539Z,4.35
2023-01-29T08:35:35.030Z,4.90
2023-01-29T08:38:05.434Z,2.15
2023-01-29T08:40:34.775Z,3.50
2023-01-29T08:43:08.724Z,2.08
2023-01-29T08:45:39.363Z,4.15
2023-01-29T08:48:06.706Z,2.63
2023-01-29T08:50:35.742Z,3.88
2023-01-29T08:53:10.258Z,3.25
2023-01-29T08:55:40.182Z,5.07
2023-01-29T08:58:09.174Z,4.57
2023-01-29T09:00:40.052Z,6.45
2023-01-29T09:03:10.135Z,3.20
2023-01-29T09:05:38.668Z,2.70
2023-01-29T09:08:06.928Z,2.90
2023-01-29T09:10:34.803Z,3.35
2023-01-29T09:13:07.413Z,1.80
2023-01-29T09:15:34.967Z,3.50
2023-01-29T09:18:05.706Z,3.10
2023-01-29T09:20:33.616Z,3.55
2023-01-29T09:23:07.393Z,3.28
2023-01-29T09:25:34.893Z,3.30
2023-01-29T09:28:02.176Z,3.10
2023-01-29T09:30:29.811Z,4.90
2023-01-29T09:32:57.561Z,3.42
2023-01-29T09:35:25.024Z,4.30
2023-01-29T09:37:52.717Z,6.45
2023-01-29T09:40:38.573Z,2.08
2023-01-29T09:43:17.027Z,9.50
2023-01-29T09:45:53.531Z,4.00
2023-01-29T09:48:22.453Z,8.07
2023-01-29T09:50:55.288Z,5.10
2023-01-29T09:53:32.711Z,8.43
2023-01-29T09:56:05.186Z,2.10
2023-01-29T09:58:42.160Z,2.35
2023-01-29T10:01:26.301Z,4.07
2023-01-29T10:04:17.670Z,13.95
2023-01-29T10:06:48.058Z,3.80
2023-01-29T10:09:54.112Z,11.88
2023-01-29T10:12:27.729Z,6.55
2023-01-29T10:15:10.792Z,3.72
2023-01-29T10:17:59.996Z,4.30
2023-01-29T10:20:42.520Z,6.20
2023-01-29T10:23:20.343Z,3.33
2023-01-29T10:25:48.834Z,5.15
2023-01-29T10:28:21.523Z,4.10
2023-01-29T10:30:51.444Z,7.90
2023-01-29T10:33:27.335Z,3.47
2023-01-29T10:36:01.686Z,4.60
2023-01-29T10:38:41.450Z,5.05
2023-01-29T10:41:12.140Z,4.05
2023-01-29T10:43:46.700Z,2.42
2023-01-29T10:46:17.268Z,2.65
2023-01-29T10:48:55.819Z,12.63
2023-01-29T10:51:46.030Z,8.63
2023-01-29T10:54:27.575Z,4.90
2023-01-29T10:57:15.366Z,2.60
2023-01-29T10:59:58.079Z,15.13
2023-01-29T11:02:25.710Z,8.75
2023-01-29T11:04:55.765Z,6.40
2023-01-29T11:07:23.772Z,7.75
2023-01-29T11:10:07.751Z,3.08
2023-01-29T11:12:38.307Z,4.80
2023-01-29T11:15:14.999Z,9.20
2023-01-29T11:18:11.674Z,5.53
2023-01-29T11:20:39.130Z,3.15
2023-01-29T11:23:07.685Z,5.32
2023-01-29T11:25:35.698Z,3.63
2023-01-29T11:28:05.334Z,5.60
2023-01-29T11:30:34.719Z,3.47
2023-01-29T11:33:24.539Z,2.83
2023-01-29T11:35:57.704Z,4.07
2023-01-29T11:38:31.545Z,2.70
2023-01-29T11:41:18.883Z,4.35
2023-01-29T11:43:46.244Z,5.88
2023-01-29T11:46:15.481Z,3.75
2023-01-29T11:48:59.082Z,5.00
2023-01-29T11:51:31.292Z,6.05
2023-01-29T11:54:05.875Z,4.43
2023-01-29T11:56:42.840Z,8.85
2023-01-29T11:59:37.412Z,5.72
2023-01-29T12:02:07.183Z,4.20
2023-01-29T12:04:40.459Z,4.90
2023-01-29T12:07:14.779Z,3.97
2023-01-29T12:09:48.350Z,4.47
2023-01-29T12:12:29.791Z,10.88
2023-01-29T12:15:11.813Z,5.47
2023-01-29T12:17:39.995Z,3.55
2023-01-29T12:20:18.503Z,18.02
2023-01-29T12:22:51.581Z,3.33
2023-01-29T12:25:43.108Z,6.25
2023-01-29T12:28:29.254Z,4.43
2023-01-29T12:31:05.045Z,2.80
2023-01-29T12:34:00.512Z,12.77
2023-01-29T12:36:36.644Z,10.27
2023-01-29T12:39:04.319Z,3.95
2023-01-29T12:41:47.239Z,14.95
2023-01-29T12:44:18.066Z,4.70
2023-01-29T12:46:52.947Z,3.17
2023-01-29T12:49:23.495Z,4.13
2023-01-29T12:52:07.886Z,2.67
2023-01-29T12:54:39.865Z,2.60
2023-01-29T12:57:30.152Z,4.10
2023-01-29T13:00:06.888Z,4.50
2023-01-29T13:03:00.666Z,4.70
2023-01-29T13:05:30.941Z,6.68
2023-01-29T13:08:14.878Z,8.55
2023-01-29T13:10:46.573Z,3.28
2023-01-29T13:13:22.832Z,6.13
2023-01-29T13:15:50.716Z,5.18
2023-01-29T13:18:42.663Z,7.40
2023-01-29T13:21:44.565Z,11.63
2023-01-29T13:24:24.081Z,7.05
2023-01-29T13:26:51.789Z,8.45
2023-01-29T13:29:28.190Z,6.25
2023-01-29T13:32:05.038Z,5.65
2023-01-29T13:34:54.688Z,4.75
2023-01-29T13:37:35.278Z,8.30
2023-01-29T13:40:06.583Z,10.05
2023-01-29T13:42:34.117Z,7.05
2023-01-29T13:45:04.105Z,11.98
2023-01-29T13:47:33.725Z,11.52
2023-01-29T13:50:07.592Z,10.88
2023-01-29T13:52:43.934Z,9.95
2023-01-29T13:55:14.412Z,11.55
2023-01-29T13:57:45.235Z,7.82
2023-01-29T14:00:21.654Z,13.23
2023-01-29T14:05:57.664Z,4.65
2023-01-29T14:08:39.279Z,11.25
2023-01-29T14:11:15.991Z,3.65
2023-01-29T14:13:50.040Z,11.60
2023-01-29T14:16:17.385Z,4.97
2023-01-29T14:19:17.597Z,3.78
2023-01-29T14:21:50.581Z,8.85
2023-01-29T14:24:20.020Z,9.15
2023-01-29T14:26:54.404Z,3.35
2023-01-29T14:29:34.666Z,4.55
2023-01-29T14:32:02.620Z,2.75
2023-01-29T14:34:47.698Z,6.47
2023-01-29T14:37:21.147Z,6.70
2023-01-29T14:40:22.891Z,4.60
2023-01-29T14:43:20.975Z,4.93
2023-01-29T14:45:49.661Z,3.78
2023-01-29T14:48:35.880Z,4.68
2023-01-29T14:51:12.885Z,6.35
2023-01-29T14:53:59.144Z,7.57
2023-01-29T14:57:15.127Z,9.68
2023-01-29T14:59:59.908Z,24.42
2023-01-29T15:02:35.283Z,29.05
2023-01-29T15:05:05.293Z,26.95
2023-01-29T15:07:39.901Z,23.38
2023-01-29T15:10:21.956Z,29.40
2023-01-29T15:12:53.735Z,39.80
2023-01-29T15:15:27.438Z,41.83
2023-01-29T15:18:02.994Z,52.38
2023-01-29T15:20:36.080Z,49.42
2023-01-29T15:23:22.220Z,48.15
2023-01-29T15:25:52.191Z,40.25
2023-01-29T15:28:19.793Z,42.03
2023-01-29T15:30:50.828Z,40.20
2023-01-29T15:33:18.525Z,37.15
2023-01-29T15:35:48.324Z,35.33
2023-01-29T15:38:22.809Z,36.60
2023-01-29T15:40:58.577Z,41.22
2023-01-29T15:43:34.242Z,37.53
2023-01-29T15:46:11.591Z,34.28
2023-01-29T15:48:43.641Z,36.50
2023-01-29T15:51:18.240Z,31.08
2023-01-29T15:53:51.600Z,30.83
2023-01-29T15:56:23.807Z,30.88
2023-01-29T15:58:51.941Z,31.77
2023-01-29T16:01:19.730Z,28.60
2023-01-29T16:03:49.770Z,36.88
2023-01-29T16:06:17.624Z,30.55
2023-01-29T16:08:49.772Z,36.08
2023-01-29T16:11:19.500Z,29.15
2023-01-29T16:13:50.090Z,28.40
2023-01-29T16:16:39.134Z,25.08
2023-01-29T16:19:22.722Z,29.08
2023-01-29T16:22:01.035Z,23.10
2023-01-29T16:24:30.082Z,27.45
2023-01-29T16:27:01.199Z,21.15
2023-01-29T16:29:36.402Z,22.52
2023-01-29T16:32:05.445Z,20.50
2023-01-29T16:34:39.356Z,19.98
2023-01-29T16:37:29.144Z,23.13
2023-01-29T16:39:57.169Z,18.20
2023-01-29T16:42:27.272Z,28.48
2023-01-29T16:45:01.525Z,16.83
2023-01-29T16:47:36.212Z,22.10
2023-01-29T16:50:25.540Z,24.13
2023-01-29T16:53:07.027Z,17.70
2023-01-29T16:55:39.542Z,16.45
2023-01-29T16:58:30.442Z,18.40
2023-01-29T17:01:02.861Z,14.55
2023-01-29T17:03:33.518Z,16.10
2023-01-29T17:06:12.614Z,17.00
2023-01-29T17:08:42.839Z,19.20
2023-01-29T17:13:46.546Z,19.45
2023-01-29T17:16:28.957Z,15.32
2023-01-29T17:18:57.112Z,11.82
2023-01-29T17:21:24.680Z,20.05
2023-01-29T17:23:54.769Z,17.83
2023-01-29T17:26:23.219Z,16.42
2023-01-29T17:31:30.403Z,18.40
2023-01-29T17:33:58.238Z,15.82
2023-01-29T17:36:26.299Z,18.90
2023-01-29T17:38:54.862Z,15.25
2023-01-29T17:41:30.578Z,12.23
2023-01-29T17:44:00.539Z,9.82
2023-01-29T17:46:28.006Z,9.65
2023-01-29T17:48:55.532Z,7.72
2023-01-29T17:51:24.882Z,14.00
2023-01-29T17:53:54.759Z,13.75
2023-01-29T17:56:30.625Z,9.38
2023-01-29T17:58:58.026Z,14.55
2023-01-29T18:01:25.624Z,16.40
2023-01-29T18:03:55.323Z,17.77
2023-01-29T18:06:28.756Z,8.90
2023-01-29T18:08:58.806Z,10.95
2023-01-29T18:11:26.351Z,12.68
2023-01-29T18:13:54.183Z,6.93
2023-01-29T18:16:24.471Z,8.77
2023-01-29T18:18:53.123Z,9.82
2023-01-29T18:21:22.801Z,9.45
2023-01-29T18:23:50.505Z,9.88
2023-01-29T18:26:20.467Z,6.07
2023-01-29T18:28:48.151Z,6.15
2023-01-29T18:31:15.914Z,7.22
2023-01-29T18:33:43.617Z,6.55
2023-01-29T18:36:11.164Z,7.30
2023-01-29T18:38:38.797Z,8.52
2023-01-29T18:41:10.531Z,8.15
2023-01-29T18:43:38.928Z,8.23
2023-01-29T18:46:07.580Z,5.28
2023-01-29T18:48:35.779Z,8.07
2023-01-29T18:51:03.254Z,7.63
2023-01-29T18:53:30.786Z,4.32
2023-01-29T18:55:59.019Z,6.78
2023-01-29T18:58:36.703Z,8.10
2023-01-29T19:01:11.803Z,10.05
2023-01-29T19:03:40.649Z,8.13
2023-01-29T19:06:10.852Z,10.13
2023-01-29T19:11:12.674Z,8.13
2023-01-29T19:13:40.995Z,6.13
2023-01-29T19:16:09.941Z,8.38
2023-01-29T19:18:40.592Z,5.47
2023-01-29T19:21:13.514Z,5.40
2023-01-29T19:23:42.201Z,6.07
2023-01-29T19:26:10.300Z,5.10
2023-01-29T19:28:38.020Z,4.13
2023-01-29T19:31:06.286Z,4.47
2023-01-29T19:33:33.955Z,6.63
2023-01-29T19:36:01.966Z,4.18
2023-01-29T19:38:33.522Z,5.10
2023-01-29T19:41:01.295Z,6.05
2023-01-29T19:43:32.424Z,7.50
2023-01-29T19:46:00.457Z,7.68
2023-01-29T19:48:28.408Z,7.15
2023-01-29T19:50:57.977Z,7.47
2023-01-29T19:53:25.877Z,5.47
2023-01-29T19:56:02.093Z,5.45
2023-01-29T19:58:29.933Z,7.65
2023-01-29T20:01:01.966Z,3.90
2023-01-29T20:03:29.893Z,9.13
2023-01-29T20:05:57.811Z,5.60
2023-01-29T20:08:25.613Z,5.47
2023-01-29T20:10:53.126Z,10.55
2023-01-29T20:13:21.004Z,7.93
2023-01-29T20:15:50.137Z,7.13
2023-01-29T20:18:18.185Z,6.95
2023-01-29T20:20:50.332Z,4.70
2023-01-29T20:23:35.229Z,5.80
2023-01-29T20:26:04.929Z,3.90
2023-01-29T20:28:32.567Z,7.90
2023-01-29T20:31:02.031Z,4.65
2023-01-29T20:33:29.460Z,6.30
2023-01-29T20:36:01.785Z,4.25
2023-01-29T20:38:31.681Z,4.40
2023-01-29T20:41:10.804Z,4.47
2023-01-29T20:43:38.443Z,3.97
2023-01-29T20:46:06.101Z,5.88
2023-01-29T20:48:35.301Z,7.28
2023-01-29T20:51:12.464Z,5.45
2023-01-29T20:53:41.164Z,6.50
2023-01-29T20:56:11.499Z,6.40
2023-01-29T21:01:11.672Z,4.15
2023-01-29T21:03:40.105Z,5.07
2023-01-29T21:06:08.757Z,5.80
2023-01-29T21:08:36.491Z,3.00
2023-01-29T21:11:05.258Z,2.33
2023-01-29T21:13:32.583Z,3.05
2023-01-29T21:16:00.234Z,2.92
2023-01-29T21:18:27.713Z,2.45
2023-01-29T21:20:55.380Z,2.35
2023-01-29T21:23:24.021Z,2.22
2023-01-29T21:25:51.105Z,3.80
2023-01-29T21:28:18.713Z,3.95
2023-01-29T21:30:46.619Z,2.53
2023-01-29T21:33:15.059Z,6.25
2023-01-29T21:35:42.431Z,5.05
2023-01-29T21:38:09.907Z,2.70
2023-01-29T21:40:37.724Z,1.90
2023-01-29T21:43:16.441Z,3.28
2023-01-29T21:45:45.589Z,5.97
2023-01-29T21:48:13.215Z,4.10
2023-01-29T21:50:40.909Z,2.92
2023-01-29T21:53:08.438Z,4.55
2023-01-29T21:55:35.773Z,5.20
2023-01-29T21:58:04.431Z,4.20
2023-01-29T22:00:32.075Z,3.13
2023-01-29T22:02:59.313Z,4.55
2023-01-29T22:05:29.193Z,3.60
2023-01-29T22:07:57.269Z,3.35
2023-01-29T22:10:24.756Z,5.63
2023-01-29T22:12:52.532Z,4.95
2023-01-29T22:15:21.127Z,2.13
2023-01-29T22:17:50.027Z,4.03
2023-01-29T22:20:17.595Z,4.13
2023-01-29T22:22:45.434Z,4.72
2023-01-29T22:25:12.988Z,6.15
2023-01-29T22:27:40.685Z,4.32
2023-01-29T22:30:09.046Z,7.93
2023-01-29T22:32:37.137Z,3.22
2023-01-29T22:35:05.133Z,6.22
2023-01-29T22:37:35.529Z,6.55
2023-01-29T22:40:02.991Z,7.45
2023-01-29T22:42:30.395Z,11.88
2023-01-29T22:44:58.093Z,3.80
2023-01-29T22:47:25.647Z,10.50
2023-01-29T22:49:53.265Z,4.50
2023-01-29T22:52:23.524Z,5.97
2023-01-29T22:54:51.590Z,3.33
2023-01-29T22:57:19.814Z,7.38
2023-01-29T22:59:47.173Z,5.80
2023-01-29T23:02:14.455Z,5.65
2023-01-29T23:04:42.295Z,2.38
2023-01-29T23:07:10.031Z,3.45
2023-01-29T23:09:37.689Z,3.78
2023-01-29T23:12:05.448Z,2.97
2023-01-29T23:14:32.888Z,5.40
2023-01-29T23:17:00.503Z,1.25
2023-01-29T23:19:28.219Z,4.53
2023-01-29T23:21:55.616Z,3.50
2023-01-29T23:24:23.275Z,2.50
2023-01-29T23:27:09.150Z,5.43
2023-01-29T23:29:36.919Z,4.72
2023-01-29T23:32:05.259Z,1.77
2023-01-29T23:34:32.686Z,5.95
2023-01-29T23:37:02.778Z,3.42
2023-01-29T23:39:30.373Z,4.47
2023-01-29T23:41:57.660Z,2.33
2023-01-29T23:44:25.104Z,2.50
2023-01-29T23:46:52.818Z,3.35
2023-01-29T23:49:20.390Z,3.42
2023-01-29T23:51:48.850Z,2.55
2023-01-29T23:54:16.653Z,2.17
2023-01-29T23:56:47.950Z,4.20
2023-01-29T23:59:15.392Z,4.47
